Time;durP1;ratioP1;P1;durP2;ratioP2;P2;SDS_P1;SDS_P2;PMS_P1;PMS_P2;Temp;Humidity;BMP_temperature;BMP_pressure;BME280_temperature;BME280_humidity;BME280_pressure;Samples;Min_cycle;Max_cycle;Signal;HPM_P1;HPM_P2
2023/12/03 00:02:24;;;;;;;92.97;43.80;;;-0.70;99.90;;;;;;4958426;28;20046;-78
2023/12/03 00:04:53;;;;;;;79.88;41.50;;;-0.80;99.90;;;;;;4949732;28;20078;-79
2023/12/03 00:07:21;;;;;;;92.10;43.30;;;-0.80;99.90;;;;;;4948574;28;20766;-78
2023/12/03 00:09:48;;;;;;;96.22;45.75;;;-0.80;99.90;;;;;;4961780;28;20042;-78
2023/12/03 00:12:15;;;;;;;101.20;47.08;;;-0.80;99.90;;;;;;4950431;28;20046;-78
2023/12/03 00:14:42;;;;;;;99.57;44.33;;;-0.80;99.90;;;;;;4935762;28;20049;-77
2023/12/03 00:17:09;;;;;;;100.35;43.78;;;-0.80;99.90;;;;;;4958155;28;20050;-77
2023/12/03 00:19:36;;;;;;;102.10;43.47;;;-0.80;99.90;;;;;;4956358;28;20104;-78
2023/12/03 00:22:03;;;;;;;103.43;46.28;;;-0.80;99.90;;;;;;4936607;28;20066;-78
2023/12/03 00:24:29;;;;;;;112.18;50.30;;;-0.70;99.90;;;;;;4968188;28;20500;-78
2023/12/03 00:26:59;;;;;;;116.70;50.13;;;-0.70;99.90;;;;;;4939612;28;20113;-78
2023/12/03 00:29:26;;;;;;;110.80;46.85;;;-0.80;99.90;;;;;;4955640;28;20062;-77
2023/12/03 00:31:53;;;;;;;114.05;48.85;;;-0.80;99.90;;;;;;4956960;28;20386;-78
2023/12/03 00:34:19;;;;;;;125.80;48.78;;;-0.80;99.90;;;;;;4972149;28;20074;-78
2023/12/03 00:36:46;;;;;;;125.15;49.47;;;-0.90;99.90;;;;;;4957682;28;20130;-77
2023/12/03 00:39:13;;;;;;;129.65;49.92;;;-0.90;99.90;;;;;;4957405;28;20448;-78
2023/12/03 00:41:40;;;;;;;123.68;51.42;;;-0.80;99.90;;;;;;4968433;28;20047;-79
2023/12/03 00:44:06;;;;;;;131.32;50.08;;;-0.80;99.90;;;;;;4952106;28;20093;-79
2023/12/03 00:46:33;;;;;;;133.25;50.60;;;-0.80;99.90;;;;;;4953805;28;20047;-78
2023/12/03 00:49:00;;;;;;;148.10;55.35;;;-0.80;99.90;;;;;;4951619;28;20038;-79
2023/12/03 00:51:27;;;;;;;151.88;56.15;;;-0.70;99.90;;;;;;4954490;28;20057;-78
2023/12/03 00:53:54;;;;;;;139.65;54.20;;;-0.70;99.90;;;;;;4971274;28;20046;-78
2023/12/03 00:56:20;;;;;;;143.68;53.00;;;-0.80;99.90;;;;;;4973254;28;20053;-78
2023/12/03 00:58:47;;;;;;;135.38;52.25;;;-0.80;99.90;;;;;;4950614;28;20065;-78
2023/12/03 01:01:14;;;;;;;159.38;55.17;;;-0.90;99.90;;;;;;4957883;28;20050;-78
2023/12/03 01:03:41;;;;;;;157.50;55.20;;;-0.90;99.90;;;;;;4952487;28;20047;-77
2023/12/03 01:06:08;;;;;;;159.55;58.30;;;-0.90;99.90;;;;;;4974741;28;20134;-79
2023/12/03 01:08:35;;;;;;;151.70;54.75;;;-0.90;99.90;;;;;;4977583;28;20661;-78
2023/12/03 01:11:05;;;;;;;143.45;56.13;;;-0.90;99.90;;;;;;4956619;28;20037;-78
2023/12/03 01:13:32;;;;;;;154.30;57.50;;;-0.90;99.90;;;;;;4942268;28;20418;-77
2023/12/03 01:16:00;;;;;;;151.07;55.85;;;-0.80;99.90;;;;;;4957159;28;20038;-78
2023/12/03 01:18:27;;;;;;;157.55;57.58;;;-0.80;99.90;;;;;;4971057;28;20551;-78
2023/12/03 01:20:54;;;;;;;149.77;54.78;;;-0.80;99.90;;;;;;4960460;28;20101;-78
2023/12/03 01:23:21;;;;;;;144.40;53.60;;;-0.80;99.90;;;;;;4959715;28;20429;-77
2023/12/03 01:25:49;;;;;;;135.93;50.72;;;-0.80;99.90;;;;;;4951805;28;20066;-78
2023/12/03 01:28:19;;;;;;;129.70;49.65;;;-0.80;99.90;;;;;;4952227;28;20517;-78
2023/12/03 01:30:46;;;;;;;137.43;50.45;;;-0.80;99.90;;;;;;4947042;28;20042;-78
2023/12/03 01:33:13;;;;;;;138.88;55.25;;;-0.80;99.90;;;;;;4981673;28;20821;-78
2023/12/03 01:35:40;;;;;;;132.82;53.95;;;-0.80;99.90;;;;;;4945753;28;20046;-78
2023/12/03 01:38:06;;;;;;;126.55;46.55;;;-0.80;99.90;;;;;;4956548;28;20113;-78
2023/12/03 01:40:33;;;;;;;131.82;50.17;;;-0.80;99.90;;;;;;4957350;28;20046;-78
2023/12/03 01:43:00;;;;;;;129.63;50.67;;;-0.70;99.90;;;;;;4955250;28;20112;-79
2023/12/03 01:45:27;;;;;;;119.60;46.80;;;-0.60;99.90;;;;;;4957616;28;20192;-78
2023/12/03 01:47:55;;;;;;;115.70;46.33;;;-0.60;99.90;;;;;;4942830;28;20050;-78
2023/12/03 01:50:23;;;;;;;133.63;51.30;;;-0.60;99.90;;;;;;4955182;28;20039;-78
2023/12/03 01:52:51;;;;;;;128.90;50.63;;;-0.60;99.90;;;;;;4957334;28;20359;-78
2023/12/03 01:55:18;;;;;;;129.73;47.40;;;-0.60;99.90;;;;;;4969108;28;20054;-78
2023/12/03 01:57:45;;;;;;;131.60;48.78;;;-0.50;99.90;;;;;;4949919;28;20054;-78
2023/12/03 02:00:12;;;;;;;143.07;51.55;;;-0.40;99.90;;;;;;4957786;28;20059;-78
2023/12/03 02:02:40;;;;;;;136.70;48.55;;;-0.40;99.90;;;;;;4952263;28;20054;-79
2023/12/03 02:05:07;;;;;;;125.85;46.10;;;-0.40;99.90;;;;;;4936332;28;20132;-78
2023/12/03 02:07:34;;;;;;;121.13;45.63;;;-0.40;99.90;;;;;;4951208;28;20097;-78
2023/12/03 02:10:01;;;;;;;125.22;47.83;;;-0.40;99.90;;;;;;4967577;28;20453;-79
2023/12/03 02:12:28;;;;;;;127.25;47.28;;;-0.50;99.90;;;;;;4979077;28;20042;-78
2023/12/03 02:14:55;;;;;;;116.95;47.10;;;-0.50;99.90;;;;;;4977486;28;20019;-79
2023/12/03 02:17:21;;;;;;;125.78;47.15;;;-0.60;99.90;;;;;;4980800;28;20101;-78
2023/12/03 02:19:48;;;;;;;130.80;49.13;;;-0.60;99.90;;;;;;4967064;28;20061;-79
2023/12/03 02:22:15;;;;;;;124.30;48.08;;;-0.50;99.90;;;;;;4945615;28;20042;-77
2023/12/03 02:24:42;;;;;;;123.32;48.72;;;-0.50;99.90;;;;;;4957712;28;20050;-77
2023/12/03 02:27:08;;;;;;;123.68;44.90;;;-0.50;99.90;;;;;;4973707;28;20493;-77
2023/12/03 02:29:35;;;;;;;124.43;47.28;;;-0.40;99.90;;;;;;4959000;28;20056;-77
2023/12/03 02:32:02;;;;;;;121.22;46.50;;;-0.40;99.90;;;;;;4955343;28;20105;-76
2023/12/03 02:34:31;;;;;;;125.10;46.33;;;-0.40;99.90;;;;;;4939935;28;20047;-77
2023/12/03 02:36:59;;;;;;;127.13;46.35;;;-0.40;99.90;;;;;;4950771;28;20659;-77
2023/12/03 02:39:25;;;;;;;138.27;46.53;;;-0.40;99.90;;;;;;4945603;28;20555;-78
2023/12/03 02:41:52;;;;;;;118.40;45.00;;;-0.50;99.90;;;;;;4975278;28;20057;-77
2023/12/03 02:44:19;;;;;;;120.82;46.95;;;-0.40;99.90;;;;;;4945532;28;20079;-77
2023/12/03 02:46:46;;;;;;;122.10;49.17;;;-0.40;99.90;;;;;;4953903;28;20705;-78
2023/12/03 02:49:12;;;;;;;124.70;48.20;;;-0.30;99.90;;;;;;4937154;28;20054;-77
2023/12/03 02:51:39;;;;;;;125.38;47.05;;;-0.30;99.90;;;;;;4956988;28;20053;-77
2023/12/03 02:54:06;;;;;;;124.43;46.47;;;-0.30;99.90;;;;;;4959608;28;20093;-77
2023/12/03 02:56:33;;;;;;;126.18;50.25;;;-0.20;99.90;;;;;;4948827;28;20179;-78
2023/12/03 02:59:00;;;;;;;124.45;48.05;;;-0.20;99.90;;;;;;4961115;28;20055;-77
2023/12/03 03:01:27;;;;;;;127.78;46.70;;;-0.10;99.90;;;;;;4955414;28;20632;-78
2023/12/03 03:03:53;;;;;;;127.68;47.80;;;-0.10;99.90;;;;;;4957602;28;20354;-78
2023/12/03 03:06:24;;;;;;;125.78;48.05;;;-0.20;99.90;;;;;;4963235;28;20089;-78
2023/12/03 03:08:51;;;;;;;125.70;46.67;;;-0.20;99.90;;;;;;4962897;28;20070;-77
2023/12/03 03:11:18;;;;;;;125.63;49.20;;;-0.20;99.90;;;;;;4957515;28;20422;-80
2023/12/03 03:13:45;;;;;;;111.20;45.42;;;-0.20;99.90;;;;;;4952797;28;20053;-77
2023/12/03 03:16:13;;;;;;;113.45;45.67;;;-0.10;99.90;;;;;;4957825;28;20053;-79
2023/12/03 03:18:39;;;;;;;115.18;46.63;;;0.00;99.90;;;;;;4953281;28;20427;-77
2023/12/03 03:21:07;;;;;;;119.63;46.42;;;0.00;99.90;;;;;;4971661;28;20054;-77
2023/12/03 03:23:37;;;;;;;116.63;47.22;;;0.00;99.90;;;;;;4954296;28;20520;-77
2023/12/03 03:26:04;;;;;;;124.90;48.85;;;0.10;99.90;;;;;;4976737;28;20190;-77
2023/12/03 03:28:31;;;;;;;134.25;52.08;;;0.00;99.90;;;;;;4964864;28;20042;-78
2023/12/03 03:30:58;;;;;;;124.72;48.60;;;-0.20;99.90;;;;;;4959557;28;20483;-77
2023/12/03 03:33:25;;;;;;;131.63;48.88;;;-0.30;99.90;;;;;;4965385;28;20042;-77
2023/12/03 03:35:52;;;;;;;125.78;50.42;;;-0.30;99.90;;;;;;4959027;28;20065;-78
2023/12/03 03:38:19;;;;;;;144.48;50.78;;;-0.20;99.90;;;;;;4979029;28;20053;-77
2023/12/03 03:40:46;;;;;;;135.55;51.60;;;-0.10;99.90;;;;;;4957996;28;20056;-77
2023/12/03 03:43:14;;;;;;;132.77;48.00;;;-0.10;99.90;;;;;;4951570;28;20058;-77
2023/12/03 03:45:40;;;;;;;131.70;52.03;;;-0.10;99.90;;;;;;4956602;28;20055;-78
2023/12/03 03:48:07;;;;;;;127.45;50.75;;;-0.10;99.90;;;;;;4937856;28;20086;-77
2023/12/03 03:50:34;;;;;;;127.30;47.80;;;-0.10;99.90;;;;;;4963439;28;20043;-77
2023/12/03 03:53:01;;;;;;;127.10;47.88;;;-0.10;99.90;;;;;;4958213;28;20097;-77
2023/12/03 03:55:28;;;;;;;128.95;49.28;;;-0.10;99.90;;;;;;4972866;28;20057;-78
2023/12/03 03:57:55;;;;;;;124.43;51.42;;;-0.10;99.90;;;;;;4939896;28;20038;-77
2023/12/03 04:00:22;;;;;;;129.15;50.05;;;-0.10;99.90;;;;;;4960318;28;20986;-77
2023/12/03 04:02:49;;;;;;;124.53;50.22;;;-0.10;99.90;;;;;;4953532;28;20053;-78
2023/12/03 04:05:16;;;;;;;118.50;49.97;;;-0.10;99.90;;;;;;4958741;28;20051;-77
2023/12/03 04:07:43;;;;;;;119.95;52.10;;;-0.10;99.90;;;;;;4951717;28;20489;-78
2023/12/03 04:10:10;;;;;;;131.63;50.78;;;-0.20;99.90;;;;;;4957350;28;20062;-77
2023/12/03 04:12:37;;;;;;;127.50;50.45;;;-0.20;99.90;;;;;;4976437;28;20049;-77
2023/12/03 04:15:05;;;;;;;131.15;52.05;;;-0.20;99.90;;;;;;4939979;28;20043;-76
2023/12/03 04:17:33;;;;;;;123.53;49.33;;;-0.20;99.90;;;;;;4939889;28;20144;-77
2023/12/03 04:20:00;;;;;;;125.57;48.72;;;-0.10;99.90;;;;;;4931279;28;20069;-77
2023/12/03 04:22:27;;;;;;;121.30;48.17;;;-0.20;99.90;;;;;;4955973;28;20049;-76
2023/12/03 04:24:53;;;;;;;114.80;46.08;;;-0.20;99.90;;;;;;4957618;28;20597;-77
2023/12/03 04:27:20;;;;;;;111.55;43.95;;;-0.30;99.90;;;;;;4942195;28;20069;-77
2023/12/03 04:29:47;;;;;;;118.32;46.58;;;-0.30;99.90;;;;;;4960500;28;20059;-78
2023/12/03 04:32:14;;;;;;;111.30;45.92;;;-0.30;99.90;;;;;;4947235;28;20052;-77
2023/12/03 04:34:41;;;;;;;109.13;45.15;;;-0.30;99.90;;;;;;4957906;28;20581;-77
2023/12/03 04:37:10;;;;;;;105.32;45.78;;;-0.30;99.90;;;;;;4955426;28;20046;-77
2023/12/03 04:39:38;;;;;;;111.47;45.05;;;-0.30;99.90;;;;;;4956500;28;20061;-76
2023/12/03 04:42:06;;;;;;;106.75;43.17;;;-0.20;99.90;;;;;;4973525;28;20101;-78
2023/12/03 04:44:33;;;;;;;108.60;44.78;;;-0.20;99.90;;;;;;4944167;28;20050;-77
2023/12/03 04:46:59;;;;;;;108.93;44.22;;;-0.30;99.90;;;;;;4970562;28;20823;-77
2023/12/03 04:49:26;;;;;;;111.93;43.70;;;-0.30;99.90;;;;;;4956276;28;20480;-78
2023/12/03 04:51:53;;;;;;;100.40;42.80;;;-0.30;99.90;;;;;;4936213;28;20102;-77
2023/12/03 04:54:20;;;;;;;106.13;41.10;;;-0.40;99.90;;;;;;4960792;28;20074;-78
2023/12/03 04:56:46;;;;;;;103.50;42.67;;;-0.40;99.90;;;;;;4946232;28;20117;-78
2023/12/03 04:59:13;;;;;;;108.05;45.45;;;-0.40;99.90;;;;;;4959768;28;20541;-77
2023/12/03 05:01:40;;;;;;;107.93;42.63;;;-0.30;99.90;;;;;;4981126;28;20076;-79
2023/12/03 05:04:07;;;;;;;106.03;43.83;;;-0.30;99.90;;;;;;4968511;28;20166;-78
2023/12/03 05:06:34;;;;;;;95.15;43.30;;;-0.30;99.90;;;;;;4989805;28;20038;-76
2023/12/03 05:09:01;;;;;;;92.65;41.78;;;-0.30;99.90;;;;;;4985421;28;20500;-77
2023/12/03 05:11:27;;;;;;;90.90;38.78;;;-0.30;99.90;;;;;;4969615;28;20097;-77
2023/12/03 05:13:56;;;;;;;99.22;42.42;;;-0.30;99.90;;;;;;4975881;28;20038;-77
2023/12/03 05:16:26;;;;;;;93.97;40.40;;;-0.30;99.90;;;;;;4956843;28;20046;-76
2023/12/03 05:18:53;;;;;;;97.78;43.90;;;-0.30;99.90;;;;;;4969094;28;20657;-78
2023/12/03 05:21:19;;;;;;;92.45;40.38;;;-0.30;99.90;;;;;;4953021;28;20587;-77
2023/12/03 05:23:46;;;;;;;97.43;43.35;;;-0.20;99.90;;;;;;4954462;28;20505;-77
2023/12/03 05:26:13;;;;;;;96.65;40.17;;;-0.20;99.90;;;;;;4971573;28;20065;-78
2023/12/03 05:28:41;;;;;;;95.68;39.00;;;-0.30;99.90;;;;;;4960382;28;20050;-77
2023/12/03 05:31:46;;;;;;;99.72;40.85;;;-0.30;99.90;;;;;;4961315;28;20126;-78
2023/12/03 05:34:13;;;;;;;101.10;38.92;;;-0.40;99.90;;;;;;4943053;28;20094;-77
2023/12/03 05:36:40;;;;;;;84.10;39.13;;;-0.40;99.90;;;;;;4978129;28;20050;-76
2023/12/03 05:39:07;;;;;;;96.50;41.35;;;-0.30;99.90;;;;;;4963642;28;20145;-76
2023/12/03 05:41:40;;;;;;;93.68;43.58;;;-0.30;99.90;;;;;;4965610;28;20050;-76
2023/12/03 05:44:07;;;;;;;89.38;38.25;;;-0.30;99.90;;;;;;4989933;28;20041;-77
2023/12/03 05:46:41;;;;;;;93.68;38.72;;;-0.20;99.90;;;;;;4992638;28;20104;-77
2023/12/03 05:49:09;;;;;;;99.78;42.15;;;-0.30;99.90;;;;;;4988001;28;20053;-77
2023/12/03 05:51:36;;;;;;;100.95;40.70;;;-0.20;99.90;;;;;;4986911;28;20045;-77
2023/12/03 05:54:03;;;;;;;92.38;39.58;;;-0.20;99.90;;;;;;4952682;28;20081;-77
2023/12/03 05:56:30;;;;;;;112.68;46.13;;;-0.20;99.90;;;;;;4945843;28;20046;-77
2023/12/03 05:58:57;;;;;;;111.25;44.50;;;-0.20;99.90;;;;;;4972927;28;20060;-77
2023/12/03 06:01:24;;;;;;;116.95;46.25;;;-0.20;99.90;;;;;;4959135;28;20050;-77
2023/12/03 06:03:52;;;;;;;112.28;44.65;;;-0.20;99.90;;;;;;4963669;28;20085;-77
2023/12/03 06:06:19;;;;;;;113.05;40.35;;;-0.20;99.90;;;;;;4960217;28;20043;-77
2023/12/03 06:08:46;;;;;;;108.00;41.83;;;-0.20;99.90;;;;;;4945533;28;20039;-76
2023/12/03 06:11:13;;;;;;;113.05;44.80;;;-0.20;99.90;;;;;;4950798;28;20117;-77
2023/12/03 06:13:40;;;;;;;105.28;43.28;;;-0.20;99.90;;;;;;4960732;28;20685;-77
2023/12/03 06:16:08;;;;;;;120.90;44.67;;;-0.20;99.90;;;;;;4948358;28;20092;-77
2023/12/03 06:18:35;;;;;;;123.82;45.20;;;-0.20;99.90;;;;;;4954236;28;20050;-76
2023/12/03 06:21:02;;;;;;;122.15;46.95;;;-0.20;99.90;;;;;;4957237;28;20136;-77
2023/12/03 06:23:29;;;;;;;121.28;47.05;;;-0.20;99.90;;;;;;4959895;28;20082;-77
2023/12/03 06:25:56;;;;;;;133.93;48.60;;;-0.20;99.90;;;;;;4973458;28;20050;-77
2023/12/03 06:28:48;;;;;;;130.95;44.58;;;-0.20;99.90;;;;;;4956850;28;20541;-77
2023/12/03 06:31:15;;;;;;;138.25;48.08;;;-0.20;99.90;;;;;;4961312;28;20634;-77
2023/12/03 06:33:42;;;;;;;135.98;49.13;;;-0.20;99.90;;;;;;4958549;28;20046;-77
2023/12/03 06:36:10;;;;;;;143.02;50.35;;;-0.20;99.90;;;;;;4950636;28;20069;-77
2023/12/03 06:38:37;;;;;;;156.45;51.70;;;-0.20;99.90;;;;;;4962177;28;20056;-77
2023/12/03 06:41:04;;;;;;;154.88;50.13;;;-0.20;99.90;;;;;;4959944;28;20392;-77
2023/12/03 06:43:30;;;;;;;160.80;52.90;;;-0.10;99.90;;;;;;4961080;28;20133;-77
2023/12/03 06:46:00;;;;;;;149.00;48.30;;;-0.20;99.90;;;;;;4953467;28;20054;-77
2023/12/03 06:48:27;;;;;;;169.20;53.13;;;-0.20;99.90;;;;;;4958409;28;20051;-78
2023/12/03 06:50:55;;;;;;;162.85;52.72;;;-0.20;99.90;;;;;;4977516;28;20371;-77
2023/12/03 06:53:21;;;;;;;163.80;52.55;;;-0.10;99.90;;;;;;4960392;28;20057;-76
2023/12/03 06:55:48;;;;;;;167.52;52.42;;;-0.10;99.90;;;;;;4957995;28;20046;-77
2023/12/03 06:58:15;;;;;;;157.43;51.13;;;-0.10;99.90;;;;;;4976655;28;20145;-76
2023/12/03 07:00:42;;;;;;;164.18;54.45;;;-0.10;99.90;;;;;;4964620;28;20065;-77
2023/12/03 07:03:09;;;;;;;156.02;50.90;;;-0.10;99.90;;;;;;4957244;28;20072;-77
2023/12/03 07:05:38;;;;;;;170.75;53.70;;;-0.10;99.90;;;;;;4956890;28;20065;-78
2023/12/03 07:08:06;;;;;;;172.48;53.80;;;-0.10;99.90;;;;;;4940193;28;20058;-77
2023/12/03 07:10:33;;;;;;;161.43;53.17;;;-0.10;99.90;;;;;;4954788;28;20034;-77
2023/12/03 07:12:59;;;;;;;150.90;52.45;;;0.00;99.90;;;;;;4959162;28;20449;-79
2023/12/03 07:15:26;;;;;;;154.38;50.17;;;0.00;99.90;;;;;;4960738;28;20123;-77
2023/12/03 07:17:53;;;;;;;155.30;52.22;;;0.00;99.90;;;;;;4961329;28;20052;-77
2023/12/03 07:20:45;;;;;;;158.90;54.78;;;0.00;99.90;;;;;;4950710;28;20058;-78
2023/12/03 07:23:12;;;;;;;166.48;53.90;;;0.00;99.90;;;;;;4939011;28;20133;-78
2023/12/03 07:25:39;;;;;;;151.00;51.22;;;0.00;99.90;;;;;;4956493;28;20065;-77
2023/12/03 07:28:05;;;;;;;156.45;52.22;;;0.00;99.90;;;;;;4961956;28;20054;-78
2023/12/03 07:30:32;;;;;;;166.20;55.47;;;0.00;99.90;;;;;;4959994;28;20432;-78
2023/12/03 07:32:59;;;;;;;160.73;55.75;;;0.00;99.90;;;;;;4956289;28;20118;-78
2023/12/03 07:35:26;;;;;;;150.57;50.88;;;0.00;99.90;;;;;;4961847;28;20046;-78
2023/12/03 07:37:53;;;;;;;161.10;53.53;;;0.10;99.90;;;;;;4940630;28;20042;-78
2023/12/03 07:40:20;;;;;;;174.80;52.42;;;0.00;99.90;;;;;;4975862;28;20093;-77
2023/12/03 07:42:47;;;;;;;156.35;52.47;;;0.00;99.90;;;;;;4960518;28;20068;-78
2023/12/03 07:45:13;;;;;;;165.07;53.45;;;0.00;99.90;;;;;;4940209;28;20054;-77
2023/12/03 07:47:40;;;;;;;152.77;51.47;;;0.00;99.90;;;;;;4941209;28;20170;-77
2023/12/03 07:50:08;;;;;;;159.85;53.15;;;0.00;99.90;;;;;;4962581;28;20047;-77
2023/12/03 07:52:35;;;;;;;143.55;49.50;;;0.00;99.90;;;;;;4946621;28;20038;-78
2023/12/03 07:55:02;;;;;;;163.60;52.15;;;0.10;99.90;;;;;;4960014;28;20046;-78
2023/12/03 07:57:29;;;;;;;151.52;53.65;;;0.10;99.90;;;;;;4956210;28;20054;-78
2023/12/03 07:59:55;;;;;;;152.68;49.47;;;0.10;99.90;;;;;;4941693;28;20417;-79
2023/12/03 08:02:22;;;;;;;145.95;51.53;;;0.10;99.90;;;;;;4951252;28;20055;-77
2023/12/03 08:04:49;;;;;;;142.98;51.10;;;0.10;99.90;;;;;;4965728;28;20069;-77
2023/12/03 08:07:16;;;;;;;135.95;49.88;;;0.10;99.90;;;;;;4954139;28;20047;-77
2023/12/03 08:09:43;;;;;;;164.88;55.20;;;0.10;99.90;;;;;;4957101;28;20117;-78
2023/12/03 08:12:10;;;;;;;138.77;50.22;;;0.10;99.90;;;;;;4937534;28;20148;-76
2023/12/03 08:14:37;;;;;;;138.73;53.25;;;0.20;99.90;;;;;;4958908;28;20039;-77
2023/12/03 08:17:03;;;;;;;129.52;47.85;;;0.20;99.90;;;;;;4958560;28;20212;-78
2023/12/03 08:19:30;;;;;;;134.82;48.28;;;0.20;99.90;;;;;;4956496;28;20050;-78
2023/12/03 08:21:57;;;;;;;130.65;48.10;;;0.20;99.90;;;;;;4958359;28;20056;-76
2023/12/03 08:24:24;;;;;;;139.15;51.33;;;0.20;99.90;;;;;;4957337;28;20050;-77
2023/12/03 08:26:51;;;;;;;128.63;46.47;;;0.20;99.90;;;;;;4962177;28;20113;-78
2023/12/03 08:29:18;;;;;;;136.18;48.40;;;0.20;99.90;;;;;;4975955;28;20093;-78
2023/12/03 08:31:45;;;;;;;126.63;47.22;;;0.20;99.90;;;;;;4974597;28;20074;-79
2023/12/03 08:34:12;;;;;;;135.93;46.63;;;0.20;99.90;;;;;;4954758;28;20068;-77
2023/12/03 08:36:39;;;;;;;130.43;47.97;;;0.20;99.90;;;;;;4963765;28;20043;-77
2023/12/03 08:39:08;;;;;;;126.47;45.42;;;0.30;99.90;;;;;;4960460;28;20105;-79
2023/12/03 08:41:38;;;;;;;128.68;46.25;;;0.30;99.90;;;;;;4977554;28;20138;-79
2023/12/03 08:44:05;;;;;;;114.45;44.92;;;0.30;99.90;;;;;;4961408;28;20058;-79
2023/12/03 08:46:32;;;;;;;109.15;42.78;;;0.30;99.90;;;;;;4949496;28;20049;-78
2023/12/03 08:48:58;;;;;;;116.80;46.20;;;0.40;99.90;;;;;;4957134;28;20042;-78
2023/12/03 08:51:25;;;;;;;108.97;41.90;;;0.30;99.90;;;;;;4960932;28;20150;-78
2023/12/03 08:53:53;;;;;;;111.35;43.63;;;0.40;99.90;;;;;;4977158;28;20601;-78
2023/12/03 08:56:19;;;;;;;105.43;42.47;;;0.40;99.90;;;;;;4938790;28;20573;-78
2023/12/03 08:58:46;;;;;;;121.63;45.47;;;0.50;99.90;;;;;;4958501;28;20046;-78
2023/12/03 09:01:13;;;;;;;106.90;44.00;;;0.50;99.90;;;;;;4951117;28;20057;-79
2023/12/03 09:03:40;;;;;;;113.28;43.13;;;0.60;99.90;;;;;;4948772;28;20026;-79
2023/12/03 09:06:08;;;;;;;104.20;43.53;;;0.60;99.90;;;;;;4963162;28;20173;-79
2023/12/03 09:08:35;;;;;;;106.10;41.38;;;0.70;99.90;;;;;;4958097;28;20054;-77
2023/12/03 09:11:11;;;;;;;103.72;41.40;;;0.70;99.90;;;;;;4944121;28;20241;-78
2023/12/03 09:13:38;;;;;;;104.97;43.35;;;0.70;99.90;;;;;;4970535;28;20046;-78
2023/12/03 09:16:06;;;;;;;111.13;43.83;;;0.60;99.90;;;;;;4983180;28;20038;-78
2023/12/03 09:18:38;;;;;;;110.22;45.00;;;0.70;99.90;;;;;;4969679;28;20035;-79
2023/12/03 09:21:12;;;;;;;91.85;42.13;;;0.70;99.90;;;;;;4979903;28;20049;-79
2023/12/03 09:23:40;;;;;;;96.75;45.47;;;0.70;99.90;;;;;;4951164;28;20057;-79
2023/12/03 09:26:07;;;;;;;93.85;41.70;;;0.80;99.90;;;;;;4949435;28;20761;-78
2023/12/03 09:28:34;;;;;;;94.75;42.90;;;0.80;99.90;;;;;;4969203;28;20039;-80
2023/12/03 09:31:01;;;;;;;98.32;42.35;;;0.80;99.90;;;;;;4947820;28;20046;-79
2023/12/03 09:33:28;;;;;;;100.30;43.22;;;0.80;99.90;;;;;;4978590;28;20146;-78
2023/12/03 09:35:58;;;;;;;89.68;41.15;;;0.80;99.90;;;;;;4957050;28;20072;-78
2023/12/03 09:39:04;;;;;;;94.20;39.47;;;0.80;99.90;;;;;;4975554;28;20050;-78
2023/12/03 09:41:34;;;;;;;90.72;41.22;;;0.70;99.90;;;;;;4975383;28;20348;-78
2023/12/03 09:44:11;;;;;;;99.60;45.88;;;0.80;99.90;;;;;;4951567;28;20085;-79
2023/12/03 09:46:38;;;;;;;108.55;46.83;;;0.80;99.90;;;;;;4959358;28;20047;-79
2023/12/03 09:49:10;;;;;;;104.70;46.70;;;0.80;99.90;;;;;;4956091;28;20042;-79
2023/12/03 09:51:40;;;;;;;106.40;47.30;;;0.70;99.90;;;;;;4962137;28;20041;-80
2023/12/03 09:54:11;;;;;;;108.18;47.55;;;0.80;99.90;;;;;;4943464;28;20042;-78
2023/12/03 09:56:42;;;;;;;109.25;47.58;;;0.90;99.90;;;;;;4977768;28;20042;-79
2023/12/03 09:59:10;;;;;;;103.75;45.67;;;0.90;99.90;;;;;;4935888;28;20473;-78
2023/12/03 10:01:38;;;;;;;105.68;46.17;;;0.90;99.90;;;;;;4958853;28;20603;-78
2023/12/03 10:04:05;;;;;;;99.53;47.47;;;0.90;99.90;;;;;;4942750;28;20054;-78
2023/12/03 10:06:34;;;;;;;106.70;45.60;;;0.90;99.90;;;;;;4957811;28;20047;-78
2023/12/03 10:09:06;;;;;;;104.90;45.17;;;1.00;99.90;;;;;;4975104;28;20042;-79
2023/12/03 10:11:42;;;;;;;109.97;43.25;;;0.90;99.90;;;;;;4945668;28;20079;-79
2023/12/03 10:14:12;;;;;;;101.93;44.10;;;1.00;99.90;;;;;;4957242;28;20478;-79
2023/12/03 10:16:40;;;;;;;98.03;45.88;;;1.00;99.90;;;;;;4961602;28;20054;-78
2023/12/03 10:19:08;;;;;;;96.68;44.20;;;1.10;99.90;;;;;;4949996;28;20046;-79
2023/12/03 10:21:35;;;;;;;100.55;46.28;;;1.10;99.90;;;;;;4964008;28;20126;-80
2023/12/03 10:24:03;;;;;;;95.80;43.58;;;1.10;99.90;;;;;;4961765;28;20096;-79
2023/12/03 10:26:31;;;;;;;89.63;44.13;;;1.20;99.90;;;;;;4970253;28;20050;-79
2023/12/03 10:28:57;;;;;;;82.68;40.08;;;1.10;99.90;;;;;;4976853;28;20122;-79
2023/12/03 10:31:26;;;;;;;78.78;40.63;;;1.10;99.90;;;;;;4972737;28;20042;-79
2023/12/03 10:33:53;;;;;;;75.43;38.97;;;1.10;99.90;;;;;;4951918;28;20046;-80
2023/12/03 10:36:20;;;;;;;80.53;39.90;;;1.20;99.90;;;;;;4945121;28;20559;-80
2023/12/03 10:38:47;;;;;;;80.30;39.15;;;1.20;99.90;;;;;;4950587;28;20569;-79
2023/12/03 10:41:14;;;;;;;72.38;38.90;;;1.30;99.90;;;;;;4976002;28;20038;-80
2023/12/03 10:43:42;;;;;;;67.78;37.58;;;1.30;99.90;;;;;;4960622;28;20051;-78
2023/12/03 10:46:13;;;;;;;70.00;40.65;;;1.30;99.90;;;;;;4972639;28;20049;-78
2023/12/03 10:48:40;;;;;;;75.30;42.00;;;1.40;99.90;;;;;;4955249;28;20133;-78
2023/12/03 10:51:09;;;;;;;70.95;39.50;;;1.30;99.90;;;;;;4974226;28;20051;-79
2023/12/03 10:53:37;;;;;;;70.85;41.17;;;1.40;99.90;;;;;;4955334;28;20051;-79
2023/12/03 10:56:06;;;;;;;70.85;40.22;;;1.50;99.90;;;;;;4971925;28;20113;-78
2023/12/03 10:58:37;;;;;;;69.40;41.03;;;1.60;99.90;;;;;;4985448;28;20476;-79
2023/12/03 11:01:18;;;;;;;67.60;39.95;;;1.70;99.90;;;;;;4951442;28;20099;-79
2023/12/03 11:04:02;;;;;;;65.53;40.20;;;1.70;99.90;;;;;;4977927;28;20113;-79
2023/12/03 11:06:33;;;;;;;81.05;44.97;;;1.70;99.90;;;;;;4963061;28;20501;-78
2023/12/03 11:09:07;;;;;;;74.83;43.03;;;1.80;99.90;;;;;;4951817;28;20070;-78
2023/12/03 11:11:37;;;;;;;80.50;45.83;;;1.60;99.90;;;;;;4955204;28;20046;-77
2023/12/03 11:14:03;;;;;;;110.00;56.05;;;1.70;99.90;;;;;;4954072;28;21103;-78
2023/12/03 11:16:57;;;;;;;95.10;50.13;;;1.80;99.90;;;;;;4958550;28;20838;-79
2023/12/03 11:19:25;;;;;;;77.78;47.58;;;1.80;99.90;;;;;;4954690;28;20061;-77
2023/12/03 11:22:04;;;;;;;78.75;42.95;;;1.90;99.90;;;;;;4971128;28;20533;-74
2023/12/03 11:24:46;;;;;;;68.85;40.83;;;2.10;99.90;;;;;;4972529;28;20073;-76
2023/12/03 11:27:13;;;;;;;70.72;43.83;;;2.10;99.90;;;;;;4950480;28;20133;-75
2023/12/03 11:29:46;;;;;;;71.85;45.60;;;2.10;99.90;;;;;;4951739;28;20050;-76
2023/12/03 11:32:13;;;;;;;70.63;44.40;;;2.10;99.90;;;;;;4971050;28;20513;-76
2023/12/03 11:34:40;;;;;;;79.55;49.10;;;2.10;99.90;;;;;;4951933;28;20050;-75
2023/12/03 11:37:11;;;;;;;67.22;48.13;;;2.20;99.90;;;;;;4961065;28;20041;-75
2023/12/03 11:39:46;;;;;;;65.38;43.42;;;2.40;99.90;;;;;;4957659;28;20042;-70
2023/12/03 11:42:15;;;;;;;67.50;44.10;;;2.40;99.90;;;;;;4952535;28;20141;-69
2023/12/03 11:44:42;;;;;;;57.50;40.22;;;2.40;99.90;;;;;;4942028;28;20042;-71
2023/12/03 11:47:12;;;;;;;59.25;40.75;;;2.30;99.90;;;;;;4969685;28;20137;-70
2023/12/03 11:49:42;;;;;;;68.78;43.90;;;2.40;99.90;;;;;;4960523;28;20057;-71
2023/12/03 11:52:09;;;;;;;63.00;40.63;;;2.40;99.90;;;;;;4952609;28;20042;-71
2023/12/03 11:54:54;;;;;;;56.65;42.00;;;2.40;99.90;;;;;;4938628;28;20039;-70
2023/12/03 11:57:21;;;;;;;57.85;39.72;;;2.40;99.90;;;;;;4975731;28;20045;-70
2023/12/03 11:59:48;;;;;;;57.95;39.90;;;2.20;99.90;;;;;;4977447;28;20061;-71
2023/12/03 12:02:15;;;;;;;58.65;40.60;;;2.20;99.90;;;;;;4943251;28;20050;-69
2023/12/03 12:04:42;;;;;;;55.35;37.33;;;2.10;99.90;;;;;;4980410;28;20101;-70
2023/12/03 12:07:16;;;;;;;55.92;40.50;;;2.00;99.90;;;;;;4956427;28;20135;-70
2023/12/03 12:09:48;;;;;;;;;;;2.00;99.90;;;;;;4961629;28;20410;-71
2023/12/03 12:12:15;;;;;;;51.22;36.38;;;2.00;99.90;;;;;;4956986;28;20135;-70
2023/12/03 12:14:42;;;;;;;49.22;38.08;;;2.10;99.90;;;;;;4957565;28;20561;-70
2023/12/03 12:17:09;;;;;;;48.72;35.58;;;2.10;99.90;;;;;;4965700;28;20038;-70
2023/12/03 12:19:47;;;;;;;55.05;42.83;;;2.00;99.90;;;;;;4968311;28;20097;-71
2023/12/03 12:22:17;;;;;;;53.13;34.67;;;1.90;99.90;;;;;;4957223;28;20065;-70
2023/12/03 12:24:45;;;;;;;44.70;34.13;;;1.90;99.90;;;;;;4950411;28;20046;-71
2023/12/03 12:27:13;;;;;;;41.78;32.72;;;1.90;99.90;;;;;;4958346;28;20176;-71
2023/12/03 12:29:40;;;;;;;46.30;32.70;;;1.90;99.90;;;;;;4962144;28;20046;-70
2023/12/03 12:32:07;;;;;;;42.03;33.50;;;1.90;99.90;;;;;;4975564;28;20048;-71